sensor_id;sensor_type;location;lat;lon;timestamp;P1;durP1;ratioP1;P2;durP2;ratioP2
21202;SDS011;10759;51.982;9.232;2023-04-12T00:01:22;5.18;;;3.00;;
21202;SDS011;10759;51.982;9.232;2023-04-12T00:03:50;7.40;;;3.20;;
21202;SDS011;10759;51.982;9.232;2023-04-12T00:06:21;5.18;;;3.10;;
21202;SDS011;10759;51.982;9.232;2023-04-12T00:08:58;3.60;;;2.83;;
21202;SDS011;10759;51.982;9.232;2023-04-12T00:11:25;6.75;;;3.30;;
21202;SDS011;10759;51.982;9.232;2023-04-12T00:13:54;3.17;;;2.70;;
21202;SDS011;10759;51.982;9.232;2023-04-12T00:16:22;3.78;;;2.72;;
21202;SDS011;10759;51.982;9.232;2023-04-12T00:18:50;6.32;;;3.33;;
21202;SDS011;10759;51.982;9.232;2023-04-12T00:21:18;5.97;;;2.67;;
21202;SDS011;10759;51.982;9.232;2023-04-12T00:23:47;3.53;;;3.08;;
21202;SDS011;10759;51.982;9.232;2023-04-12T00:26:15;7.07;;;3.25;;
21202;SDS011;10759;51.982;9.232;2023-04-12T00:28:43;4.40;;;3.22;;
21202;SDS011;10759;51.982;9.232;2023-04-12T00:31:11;5.93;;;2.65;;
21202;SDS011;10759;51.982;9.232;2023-04-12T00:33:39;5.78;;;2.83;;
21202;SDS011;10759;51.982;9.232;2023-04-12T00:36:07;5.20;;;2.88;;
21202;SDS011;10759;51.982;9.232;2023-04-12T00:38:36;4.85;;;2.30;;
21202;SDS011;10759;51.982;9.232;2023-04-12T00:41:05;4.57;;;2.33;;
21202;SDS011;10759;51.982;9.232;2023-04-12T00:43:33;4.45;;;2.97;;
21202;SDS011;10759;51.982;9.232;2023-04-12T00:46:01;4.30;;;3.30;;
21202;SDS011;10759;51.982;9.232;2023-04-12T00:48:29;6.75;;;3.33;;
21202;SDS011;10759;51.982;9.232;2023-04-12T00:50:58;8.43;;;3.40;;
21202;SDS011;10759;51.982;9.232;2023-04-12T00:53:27;5.28;;;3.25;;
21202;SDS011;10759;51.982;9.232;2023-04-12T00:55:55;7.05;;;3.50;;
21202;SDS011;10759;51.982;9.232;2023-04-12T00:58:24;5.55;;;3.35;;
21202;SDS011;10759;51.982;9.232;2023-04-12T01:00:52;5.83;;;4.17;;
21202;SDS011;10759;51.982;9.232;2023-04-12T01:03:22;4.55;;;3.50;;
21202;SDS011;10759;51.982;9.232;2023-04-12T01:05:56;5.38;;;3.80;;
21202;SDS011;10759;51.982;9.232;2023-04-12T01:08:37;6.63;;;3.70;;
21202;SDS011;10759;51.982;9.232;2023-04-12T01:11:16;5.47;;;3.35;;
21202;SDS011;10759;51.982;9.232;2023-04-12T01:13:53;6.57;;;3.00;;
21202;SDS011;10759;51.982;9.232;2023-04-12T01:16:27;4.57;;;3.08;;
21202;SDS011;10759;51.982;9.232;2023-04-12T01:19:01;3.58;;;2.90;;
21202;SDS011;10759;51.982;9.232;2023-04-12T01:21:40;5.78;;;3.13;;
21202;SDS011;10759;51.982;9.232;2023-04-12T01:24:21;3.65;;;2.35;;
21202;SDS011;10759;51.982;9.232;2023-04-12T01:26:54;6.57;;;2.95;;
21202;SDS011;10759;51.982;9.232;2023-04-12T01:29:27;4.20;;;2.85;;
21202;SDS011;10759;51.982;9.232;2023-04-12T01:31:57;5.07;;;3.08;;
21202;SDS011;10759;51.982;9.232;2023-04-12T01:34:27;3.35;;;2.78;;
21202;SDS011;10759;51.982;9.232;2023-04-12T01:36:57;6.07;;;2.93;;
21202;SDS011;10759;51.982;9.232;2023-04-12T01:39:28;6.68;;;3.38;;
21202;SDS011;10759;51.982;9.232;2023-04-12T01:41:58;6.85;;;3.72;;
21202;SDS011;10759;51.982;9.232;2023-04-12T01:44:28;5.50;;;3.80;;
21202;SDS011;10759;51.982;9.232;2023-04-12T01:46:56;3.40;;;2.80;;
21202;SDS011;10759;51.982;9.232;2023-04-12T01:49:24;3.67;;;2.65;;
21202;SDS011;10759;51.982;9.232;2023-04-12T01:52:00;4.88;;;2.92;;
21202;SDS011;10759;51.982;9.232;2023-04-12T01:54:37;4.32;;;2.70;;
21202;SDS011;10759;51.982;9.232;2023-04-12T01:57:08;6.32;;;2.55;;
21202;SDS011;10759;51.982;9.232;2023-04-12T01:59:39;5.22;;;2.20;;
21202;SDS011;10759;51.982;9.232;2023-04-12T02:02:09;3.03;;;2.35;;
21202;SDS011;10759;51.982;9.232;2023-04-12T02:04:38;4.05;;;2.10;;
21202;SDS011;10759;51.982;9.232;2023-04-12T02:07:08;2.97;;;2.40;;
21202;SDS011;10759;51.982;9.232;2023-04-12T02:09:37;2.33;;;1.98;;
21202;SDS011;10759;51.982;9.232;2023-04-12T02:12:06;4.10;;;2.50;;
21202;SDS011;10759;51.982;9.232;2023-04-12T02:14:34;4.22;;;2.03;;
21202;SDS011;10759;51.982;9.232;2023-04-12T02:17:04;2.63;;;1.90;;
21202;SDS011;10759;51.982;9.232;2023-04-12T02:19:34;6.25;;;2.50;;
21202;SDS011;10759;51.982;9.232;2023-04-12T02:22:02;4.78;;;2.10;;
21202;SDS011;10759;51.982;9.232;2023-04-12T02:24:31;4.28;;;2.33;;
21202;SDS011;10759;51.982;9.232;2023-04-12T02:26:59;3.85;;;2.28;;
21202;SDS011;10759;51.982;9.232;2023-04-12T02:29:27;5.45;;;2.88;;
21202;SDS011;10759;51.982;9.232;2023-04-12T02:31:56;6.60;;;2.60;;
21202;SDS011;10759;51.982;9.232;2023-04-12T02:34:27;4.65;;;2.65;;
21202;SDS011;10759;51.982;9.232;2023-04-12T02:37:08;6.60;;;2.90;;
21202;SDS011;10759;51.982;9.232;2023-04-12T02:39:36;6.63;;;2.50;;
21202;SDS011;10759;51.982;9.232;2023-04-12T02:44:36;5.93;;;2.67;;
21202;SDS011;10759;51.982;9.232;2023-04-12T02:47:09;5.68;;;2.35;;
21202;SDS011;10759;51.982;9.232;2023-04-12T02:49:41;6.10;;;2.53;;
21202;SDS011;10759;51.982;9.232;2023-04-12T02:52:11;3.45;;;2.88;;
21202;SDS011;10759;51.982;9.232;2023-04-12T02:54:52;7.88;;;2.72;;
21202;SDS011;10759;51.982;9.232;2023-04-12T02:57:20;3.67;;;2.85;;
21202;SDS011;10759;51.982;9.232;2023-04-12T02:59:49;5.13;;;2.45;;
21202;SDS011;10759;51.982;9.232;2023-04-12T03:02:22;3.92;;;2.38;;
21202;SDS011;10759;51.982;9.232;2023-04-12T03:04:57;5.80;;;2.95;;
21202;SDS011;10759;51.982;9.232;2023-04-12T03:07:34;6.18;;;2.80;;
21202;SDS011;10759;51.982;9.232;2023-04-12T03:10:04;6.45;;;2.72;;
21202;SDS011;10759;51.982;9.232;2023-04-12T03:12:39;5.35;;;2.65;;
21202;SDS011;10759;51.982;9.232;2023-04-12T03:15:13;5.43;;;2.75;;
21202;SDS011;10759;51.982;9.232;2023-04-12T03:17:45;4.55;;;2.70;;
21202;SDS011;10759;51.982;9.232;2023-04-12T03:20:16;7.72;;;2.67;;
21202;SDS011;10759;51.982;9.232;2023-04-12T03:22:57;6.80;;;2.45;;
21202;SDS011;10759;51.982;9.232;2023-04-12T03:25:26;4.80;;;2.50;;
21202;SDS011;10759;51.982;9.232;2023-04-12T03:27:59;7.25;;;2.85;;
21202;SDS011;10759;51.982;9.232;2023-04-12T03:30:43;5.78;;;2.65;;
21202;SDS011;10759;51.982;9.232;2023-04-12T03:33:14;5.43;;;2.45;;
21202;SDS011;10759;51.982;9.232;2023-04-12T03:35:45;4.38;;;2.30;;
21202;SDS011;10759;51.982;9.232;2023-04-12T03:40:42;4.65;;;2.83;;
21202;SDS011;10759;51.982;9.232;2023-04-12T03:43:10;4.88;;;2.90;;
21202;SDS011;10759;51.982;9.232;2023-04-12T03:45:38;6.07;;;3.60;;
21202;SDS011;10759;51.982;9.232;2023-04-12T03:48:06;5.68;;;3.03;;
21202;SDS011;10759;51.982;9.232;2023-04-12T03:50:40;5.22;;;2.53;;
21202;SDS011;10759;51.982;9.232;2023-04-12T03:53:19;6.50;;;2.83;;
21202;SDS011;10759;51.982;9.232;2023-04-12T03:55:48;7.90;;;2.58;;
21202;SDS011;10759;51.982;9.232;2023-04-12T03:58:16;6.40;;;2.15;;
21202;SDS011;10759;51.982;9.232;2023-04-12T04:00:45;3.55;;;2.25;;
21202;SDS011;10759;51.982;9.232;2023-04-12T04:03:14;4.70;;;1.77;;
21202;SDS011;10759;51.982;9.232;2023-04-12T04:06:01;5.80;;;1.95;;
21202;SDS011;10759;51.982;9.232;2023-04-12T04:08:32;5.15;;;2.10;;
21202;SDS011;10759;51.982;9.232;2023-04-12T04:11:00;5.43;;;2.30;;
21202;SDS011;10759;51.982;9.232;2023-04-12T04:13:35;3.70;;;2.33;;
21202;SDS011;10759;51.982;9.232;2023-04-12T04:16:06;6.35;;;2.17;;
21202;SDS011;10759;51.982;9.232;2023-04-12T04:18:38;7.13;;;2.90;;
21202;SDS011;10759;51.982;9.232;2023-04-12T04:21:08;6.43;;;2.13;;
21202;SDS011;10759;51.982;9.232;2023-04-12T04:23:38;4.25;;;1.65;;
21202;SDS011;10759;51.982;9.232;2023-04-12T04:26:10;4.53;;;2.00;;
21202;SDS011;10759;51.982;9.232;2023-04-12T04:28:48;3.88;;;2.22;;
21202;SDS011;10759;51.982;9.232;2023-04-12T04:31:21;3.17;;;1.85;;
21202;SDS011;10759;51.982;9.232;2023-04-12T04:33:51;6.65;;;2.55;;
21202;SDS011;10759;51.982;9.232;2023-04-12T04:36:27;4.15;;;2.38;;
21202;SDS011;10759;51.982;9.232;2023-04-12T04:38:56;2.55;;;1.98;;
21202;SDS011;10759;51.982;9.232;2023-04-12T04:41:36;5.40;;;2.15;;
21202;SDS011;10759;51.982;9.232;2023-04-12T04:44:17;5.10;;;2.30;;
21202;SDS011;10759;51.982;9.232;2023-04-12T04:46:51;5.13;;;2.13;;
21202;SDS011;10759;51.982;9.232;2023-04-12T04:49:19;4.63;;;2.05;;
21202;SDS011;10759;51.982;9.232;2023-04-12T04:51:47;6.05;;;2.10;;
21202;SDS011;10759;51.982;9.232;2023-04-12T04:54:18;7.53;;;2.10;;
21202;SDS011;10759;51.982;9.232;2023-04-12T04:56:45;4.90;;;2.40;;
21202;SDS011;10759;51.982;9.232;2023-04-12T04:59:16;3.22;;;1.92;;
21202;SDS011;10759;51.982;9.232;2023-04-12T05:01:45;6.38;;;2.10;;
21202;SDS011;10759;51.982;9.232;2023-04-12T05:04:15;4.40;;;2.67;;
21202;SDS011;10759;51.982;9.232;2023-04-12T05:06:44;4.57;;;1.90;;
21202;SDS011;10759;51.982;9.232;2023-04-12T05:09:18;4.07;;;2.05;;
21202;SDS011;10759;51.982;9.232;2023-04-12T05:11:53;3.90;;;2.13;;
21202;SDS011;10759;51.982;9.232;2023-04-12T05:14:23;3.43;;;1.90;;
21202;SDS011;10759;51.982;9.232;2023-04-12T05:17:07;8.38;;;2.38;;
21202;SDS011;10759;51.982;9.232;2023-04-12T05:19:34;3.05;;;2.00;;
21202;SDS011;10759;51.982;9.232;2023-04-12T05:22:02;5.72;;;2.15;;
21202;SDS011;10759;51.982;9.232;2023-04-12T05:24:32;6.03;;;2.50;;
21202;SDS011;10759;51.982;9.232;2023-04-12T05:27:00;6.37;;;2.50;;
21202;SDS011;10759;51.982;9.232;2023-04-12T05:29:28;7.22;;;2.72;;
21202;SDS011;10759;51.982;9.232;2023-04-12T05:31:57;7.40;;;2.50;;
21202;SDS011;10759;51.982;9.232;2023-04-12T05:34:25;7.10;;;2.30;;
21202;SDS011;10759;51.982;9.232;2023-04-12T05:36:54;3.38;;;1.95;;
21202;SDS011;10759;51.982;9.232;2023-04-12T05:39:27;2.63;;;2.15;;
21202;SDS011;10759;51.982;9.232;2023-04-12T05:41:57;4.35;;;2.47;;
21202;SDS011;10759;51.982;9.232;2023-04-12T05:44:25;4.63;;;2.63;;
21202;SDS011;10759;51.982;9.232;2023-04-12T05:46:54;6.35;;;2.88;;
21202;SDS011;10759;51.982;9.232;2023-04-12T05:49:22;7.97;;;2.40;;
21202;SDS011;10759;51.982;9.232;2023-04-12T05:51:50;6.18;;;2.45;;
21202;SDS011;10759;51.982;9.232;2023-04-12T05:54:20;9.10;;;2.58;;
21202;SDS011;10759;51.982;9.232;2023-04-12T05:56:50;8.32;;;2.65;;
21202;SDS011;10759;51.982;9.232;2023-04-12T05:59:21;8.77;;;2.80;;
21202;SDS011;10759;51.982;9.232;2023-04-12T06:01:49;9.48;;;2.63;;
21202;SDS011;10759;51.982;9.232;2023-04-12T06:04:19;4.05;;;2.72;;
21202;SDS011;10759;51.982;9.232;2023-04-12T06:06:47;3.20;;;2.28;;
21202;SDS011;10759;51.982;9.232;2023-04-12T06:09:15;4.75;;;2.78;;
21202;SDS011;10759;51.982;9.232;2023-04-12T06:11:43;7.47;;;2.60;;
21202;SDS011;10759;51.982;9.232;2023-04-12T06:14:11;6.80;;;2.50;;
21202;SDS011;10759;51.982;9.232;2023-04-12T06:16:41;7.13;;;2.47;;
21202;SDS011;10759;51.982;9.232;2023-04-12T06:19:09;4.53;;;2.42;;
21202;SDS011;10759;51.982;9.232;2023-04-12T06:21:37;4.75;;;2.90;;
21202;SDS011;10759;51.982;9.232;2023-04-12T06:24:07;5.18;;;2.33;;
21202;SDS011;10759;51.982;9.232;2023-04-12T06:26:36;7.00;;;2.63;;
21202;SDS011;10759;51.982;9.232;2023-04-12T06:29:07;4.60;;;2.50;;
21202;SDS011;10759;51.982;9.232;2023-04-12T06:31:35;4.60;;;1.95;;
21202;SDS011;10759;51.982;9.232;2023-04-12T06:34:04;6.28;;;2.40;;
21202;SDS011;10759;51.982;9.232;2023-04-12T06:36:36;5.90;;;2.35;;
21202;SDS011;10759;51.982;9.232;2023-04-12T06:39:05;4.32;;;2.38;;
21202;SDS011;10759;51.982;9.232;2023-04-12T06:41:33;6.03;;;2.22;;
21202;SDS011;10759;51.982;9.232;2023-04-12T06:44:01;2.45;;;2.15;;
21202;SDS011;10759;51.982;9.232;2023-04-12T06:46:30;4.32;;;2.88;;
21202;SDS011;10759;51.982;9.232;2023-04-12T06:48:58;5.93;;;2.50;;
21202;SDS011;10759;51.982;9.232;2023-04-12T06:51:28;3.97;;;2.65;;
21202;SDS011;10759;51.982;9.232;2023-04-12T06:53:56;4.28;;;2.15;;
21202;SDS011;10759;51.982;9.232;2023-04-12T06:56:24;5.35;;;2.22;;
21202;SDS011;10759;51.982;9.232;2023-04-12T06:58:52;5.80;;;2.20;;
21202;SDS011;10759;51.982;9.232;2023-04-12T07:01:20;3.95;;;1.90;;
21202;SDS011;10759;51.982;9.232;2023-04-12T07:03:48;5.13;;;2.40;;
21202;SDS011;10759;51.982;9.232;2023-04-12T07:06:16;4.28;;;1.95;;
21202;SDS011;10759;51.982;9.232;2023-04-12T07:08:53;4.55;;;2.05;;
21202;SDS011;10759;51.982;9.232;2023-04-12T07:11:21;4.10;;;1.92;;
21202;SDS011;10759;51.982;9.232;2023-04-12T07:13:49;3.38;;;1.85;;
21202;SDS011;10759;51.982;9.232;2023-04-12T07:16:17;3.65;;;1.80;;
21202;SDS011;10759;51.982;9.232;2023-04-12T07:18:45;2.33;;;1.60;;
21202;SDS011;10759;51.982;9.232;2023-04-12T07:21:13;3.25;;;1.63;;
21202;SDS011;10759;51.982;9.232;2023-04-12T07:23:43;2.88;;;1.88;;
21202;SDS011;10759;51.982;9.232;2023-04-12T07:26:13;3.42;;;2.10;;
21202;SDS011;10759;51.982;9.232;2023-04-12T07:28:41;2.90;;;1.50;;
21202;SDS011;10759;51.982;9.232;2023-04-12T07:31:09;3.42;;;1.90;;
21202;SDS011;10759;51.982;9.232;2023-04-12T07:33:37;4.45;;;1.98;;
21202;SDS011;10759;51.982;9.232;2023-04-12T07:36:08;3.15;;;2.00;;
21202;SDS011;10759;51.982;9.232;2023-04-12T07:38:37;7.15;;;3.88;;
21202;SDS011;10759;51.982;9.232;2023-04-12T07:41:05;4.85;;;2.63;;
21202;SDS011;10759;51.982;9.232;2023-04-12T07:43:34;2.95;;;1.73;;
21202;SDS011;10759;51.982;9.232;2023-04-12T07:46:02;3.30;;;1.90;;
21202;SDS011;10759;51.982;9.232;2023-04-12T07:48:33;5.90;;;2.25;;
21202;SDS011;10759;51.982;9.232;2023-04-12T07:51:01;4.13;;;1.90;;
21202;SDS011;10759;51.982;9.232;2023-04-12T07:53:29;2.67;;;1.77;;
21202;SDS011;10759;51.982;9.232;2023-04-12T07:55:57;3.67;;;2.00;;
21202;SDS011;10759;51.982;9.232;2023-04-12T07:58:25;6.43;;;2.25;;
21202;SDS011;10759;51.982;9.232;2023-04-12T08:00:54;2.95;;;1.60;;
21202;SDS011;10759;51.982;9.232;2023-04-12T08:03:26;4.65;;;2.17;;
21202;SDS011;10759;51.982;9.232;2023-04-12T08:05:54;6.30;;;2.10;;
21202;SDS011;10759;51.982;9.232;2023-04-12T08:08:22;4.18;;;2.35;;
21202;SDS011;10759;51.982;9.232;2023-04-12T08:10:50;8.07;;;2.30;;
21202;SDS011;10759;51.982;9.232;2023-04-12T08:13:19;4.30;;;2.13;;
21202;SDS011;10759;51.982;9.232;2023-04-12T08:15:47;3.63;;;2.00;;
21202;SDS011;10759;51.982;9.232;2023-04-12T08:18:16;3.20;;;1.90;;
21202;SDS011;10759;51.982;9.232;2023-04-12T08:20:44;6.40;;;2.03;;
21202;SDS011;10759;51.982;9.232;2023-04-12T08:23:12;4.28;;;2.22;;
21202;SDS011;10759;51.982;9.232;2023-04-12T08:25:41;3.70;;;2.67;;
21202;SDS011;10759;51.982;9.232;2023-04-12T08:28:09;4.95;;;2.40;;
21202;SDS011;10759;51.982;9.232;2023-04-12T08:30:37;3.55;;;1.80;;
21202;SDS011;10759;51.982;9.232;2023-04-12T08:33:05;4.15;;;1.95;;
21202;SDS011;10759;51.982;9.232;2023-04-12T08:35:34;4.57;;;2.67;;
21202;SDS011;10759;51.982;9.232;2023-04-12T08:38:02;4.07;;;2.00;;
21202;SDS011;10759;51.982;9.232;2023-04-12T08:40:33;3.83;;;2.65;;
21202;SDS011;10759;51.982;9.232;2023-04-12T08:43:01;3.03;;;2.33;;
21202;SDS011;10759;51.982;9.232;2023-04-12T08:45:34;6.97;;;2.38;;
21202;SDS011;10759;51.982;9.232;2023-04-12T08:48:03;5.00;;;2.83;;
21202;SDS011;10759;51.982;9.232;2023-04-12T08:50:32;3.55;;;2.38;;
21202;SDS011;10759;51.982;9.232;2023-04-12T08:53:01;3.55;;;2.40;;
21202;SDS011;10759;51.982;9.232;2023-04-12T08:55:29;2.45;;;2.25;;
21202;SDS011;10759;51.982;9.232;2023-04-12T08:57:57;3.42;;;2.28;;
21202;SDS011;10759;51.982;9.232;2023-04-12T09:00:26;4.80;;;2.63;;
21202;SDS011;10759;51.982;9.232;2023-04-12T09:02:54;5.15;;;2.67;;
21202;SDS011;10759;51.982;9.232;2023-04-12T09:05:26;4.10;;;2.65;;
21202;SDS011;10759;51.982;9.232;2023-04-12T09:07:55;3.50;;;2.45;;
21202;SDS011;10759;51.982;9.232;2023-04-12T09:10:31;3.88;;;2.38;;
21202;SDS011;10759;51.982;9.232;2023-04-12T09:13:00;3.88;;;2.20;;
21202;SDS011;10759;51.982;9.232;2023-04-12T09:15:29;2.38;;;2.13;;
21202;SDS011;10759;51.982;9.232;2023-04-12T09:18:04;2.67;;;2.33;;
21202;SDS011;10759;51.982;9.232;2023-04-12T09:20:34;7.57;;;2.53;;
21202;SDS011;10759;51.982;9.232;2023-04-12T09:23:15;2.20;;;2.00;;
21202;SDS011;10759;51.982;9.232;2023-04-12T09:25:46;3.67;;;2.10;;
21202;SDS011;10759;51.982;9.232;2023-04-12T09:28:18;2.50;;;2.08;;
21202;SDS011;10759;51.982;9.232;2023-04-12T09:30:47;2.78;;;2.10;;
21202;SDS011;10759;51.982;9.232;2023-04-12T09:33:17;2.42;;;2.15;;
21202;SDS011;10759;51.982;9.232;2023-04-12T09:35:46;3.57;;;1.87;;
21202;SDS011;10759;51.982;9.232;2023-04-12T09:38:15;3.25;;;2.17;;
21202;SDS011;10759;51.982;9.232;2023-04-12T09:40:43;3.45;;;2.00;;
21202;SDS011;10759;51.982;9.232;2023-04-12T09:43:12;2.63;;;2.25;;
21202;SDS011;10759;51.982;9.232;2023-04-12T09:45:41;3.70;;;2.22;;
21202;SDS011;10759;51.982;9.232;2023-04-12T09:48:17;4.63;;;2.10;;
21202;SDS011;10759;51.982;9.232;2023-04-12T09:50:45;2.78;;;1.80;;
21202;SDS011;10759;51.982;9.232;2023-04-12T09:53:14;3.63;;;2.17;;
21202;SDS011;10759;51.982;9.232;2023-04-12T09:55:43;2.22;;;2.05;;
21202;SDS011;10759;51.982;9.232;2023-04-12T09:58:15;3.05;;;2.00;;
21202;SDS011;10759;51.982;9.232;2023-04-12T10:00:46;2.42;;;2.17;;
21202;SDS011;10759;51.982;9.232;2023-04-12T10:03:15;2.95;;;2.05;;
21202;SDS011;10759;51.982;9.232;2023-04-12T10:05:45;2.38;;;2.08;;
21202;SDS011;10759;51.982;9.232;2023-04-12T10:08:13;2.60;;;2.03;;
21202;SDS011;10759;51.982;9.232;2023-04-12T10:10:43;5.10;;;1.92;;
21202;SDS011;10759;51.982;9.232;2023-04-12T10:13:11;1.98;;;1.60;;
21202;SDS011;10759;51.982;9.232;2023-04-12T10:15:41;2.58;;;2.10;;
21202;SDS011;10759;51.982;9.232;2023-04-12T10:18:12;2.80;;;2.40;;
21202;SDS011;10759;51.982;9.232;2023-04-12T10:20:42;4.10;;;2.03;;
21202;SDS011;10759;51.982;9.232;2023-04-12T10:23:15;2.13;;;1.80;;
21202;SDS011;10759;51.982;9.232;2023-04-12T10:25:45;2.40;;;2.00;;
21202;SDS011;10759;51.982;9.232;2023-04-12T10:28:15;2.63;;;2.00;;
21202;SDS011;10759;51.982;9.232;2023-04-12T10:30:46;3.42;;;1.88;;
21202;SDS011;10759;51.982;9.232;2023-04-12T10:33:16;4.13;;;2.40;;
21202;SDS011;10759;51.982;9.232;2023-04-12T10:35:53;3.15;;;1.90;;
21202;SDS011;10759;51.982;9.232;2023-04-12T10:38:23;2.00;;;1.88;;
21202;SDS011;10759;51.982;9.232;2023-04-12T10:41:11;2.85;;;1.77;;
21202;SDS011;10759;51.982;9.232;2023-04-12T10:43:41;2.13;;;1.75;;
21202;SDS011;10759;51.982;9.232;2023-04-12T10:49:17;3.00;;;1.63;;
21202;SDS011;10759;51.982;9.232;2023-04-12T10:54:40;1.95;;;1.80;;
21202;SDS011;10759;51.982;9.232;2023-04-12T11:00:10;2.70;;;2.33;;
21202;SDS011;10759;51.982;9.232;2023-04-12T11:05:57;3.38;;;2.72;;
21202;SDS011;10759;51.982;9.232;2023-04-12T11:09:03;2.65;;;2.45;;
21202;SDS011;10759;51.982;9.232;2023-04-12T11:11:33;2.25;;;1.90;;
21202;SDS011;10759;51.982;9.232;2023-04-12T11:14:01;3.28;;;1.90;;
21202;SDS011;10759;51.982;9.232;2023-04-12T11:16:29;1.90;;;1.77;;
21202;SDS011;10759;51.982;9.232;2023-04-12T11:18:58;1.77;;;1.67;;
21202;SDS011;10759;51.982;9.232;2023-04-12T11:21:27;2.45;;;1.92;;
21202;SDS011;10759;51.982;9.232;2023-04-12T11:23:55;2.28;;;2.00;;
21202;SDS011;10759;51.982;9.232;2023-04-12T11:26:28;2.30;;;1.38;;
21202;SDS011;10759;51.982;9.232;2023-04-12T11:28:57;3.28;;;1.83;;
21202;SDS011;10759;51.982;9.232;2023-04-12T11:31:25;1.67;;;1.58;;
21202;SDS011;10759;51.982;9.232;2023-04-12T11:33:53;1.90;;;1.75;;
21202;SDS011;10759;51.982;9.232;2023-04-12T11:36:22;2.50;;;1.90;;
21202;SDS011;10759;51.982;9.232;2023-04-12T11:41:22;2.22;;;2.03;;
21202;SDS011;10759;51.982;9.232;2023-04-12T11:43:50;1.85;;;1.70;;
21202;SDS011;10759;51.982;9.232;2023-04-12T11:46:19;2.38;;;1.83;;
21202;SDS011;10759;51.982;9.232;2023-04-12T11:48:47;1.98;;;1.75;;
21202;SDS011;10759;51.982;9.232;2023-04-12T11:51:18;1.90;;;1.80;;
21202;SDS011;10759;51.982;9.232;2023-04-12T11:53:52;1.92;;;1.80;;
21202;SDS011;10759;51.982;9.232;2023-04-12T11:56:21;2.10;;;2.00;;
21202;SDS011;10759;51.982;9.232;2023-04-12T11:58:49;1.98;;;1.88;;
21202;SDS011;10759;51.982;9.232;2023-04-12T12:01:18;3.28;;;2.42;;
21202;SDS011;10759;51.982;9.232;2023-04-12T12:03:47;2.20;;;2.00;;
21202;SDS011;10759;51.982;9.232;2023-04-12T12:06:16;1.83;;;1.73;;
21202;SDS011;10759;51.982;9.232;2023-04-12T12:08:46;2.75;;;2.45;;
21202;SDS011;10759;51.982;9.232;2023-04-12T12:11:17;4.22;;;2.83;;
21202;SDS011;10759;51.982;9.232;2023-04-12T12:13:47;2.35;;;1.83;;
21202;SDS011;10759;51.982;9.232;2023-04-12T12:16:17;2.55;;;2.00;;
21202;SDS011;10759;51.982;9.232;2023-04-12T12:18:47;2.20;;;1.70;;
21202;SDS011;10759;51.982;9.232;2023-04-12T12:21:18;1.80;;;1.70;;
21202;SDS011;10759;51.982;9.232;2023-04-12T12:23:47;1.67;;;1.58;;
21202;SDS011;10759;51.982;9.232;2023-04-12T12:26:20;1.58;;;1.48;;
21202;SDS011;10759;51.982;9.232;2023-04-12T12:28:50;1.85;;;1.75;;
21202;SDS011;10759;51.982;9.232;2023-04-12T12:31:19;1.90;;;1.80;;
21202;SDS011;10759;51.982;9.232;2023-04-12T12:33:52;2.67;;;1.80;;
21202;SDS011;10759;51.982;9.232;2023-04-12T12:36:27;1.60;;;1.50;;
21202;SDS011;10759;51.982;9.232;2023-04-12T12:39:01;2.63;;;1.75;;
21202;SDS011;10759;51.982;9.232;2023-04-12T12:41:33;2.03;;;1.60;;
21202;SDS011;10759;51.982;9.232;2023-04-12T12:44:02;1.70;;;1.60;;
21202;SDS011;10759;51.982;9.232;2023-04-12T12:46:30;2.10;;;1.90;;
21202;SDS011;10759;51.982;9.232;2023-04-12T12:49:17;2.08;;;1.98;;
21202;SDS011;10759;51.982;9.232;2023-04-12T12:51:45;2.33;;;1.73;;
21202;SDS011;10759;51.982;9.232;2023-04-12T12:54:13;1.90;;;1.80;;
21202;SDS011;10759;51.982;9.232;2023-04-12T12:57:04;2.00;;;1.90;;
21202;SDS011;10759;51.982;9.232;2023-04-12T12:59:32;2.35;;;2.15;;
21202;SDS011;10759;51.982;9.232;2023-04-12T13:01:59;2.88;;;2.10;;
21202;SDS011;10759;51.982;9.232;2023-04-12T13:04:28;2.00;;;1.90;;
21202;SDS011;10759;51.982;9.232;2023-04-12T13:06:56;1.83;;;1.73;;
21202;SDS011;10759;51.982;9.232;2023-04-12T13:09:24;2.00;;;1.80;;
21202;SDS011;10759;51.982;9.232;2023-04-12T13:11:52;2.03;;;1.92;;
21202;SDS011;10759;51.982;9.232;2023-04-12T13:14:21;2.47;;;2.22;;
21202;SDS011;10759;51.982;9.232;2023-04-12T13:16:49;2.60;;;2.40;;
21202;SDS011;10759;51.982;9.232;2023-04-12T13:19:17;2.42;;;2.33;;
21202;SDS011;10759;51.982;9.232;2023-04-12T13:21:45;3.30;;;3.00;;
21202;SDS011;10759;51.982;9.232;2023-04-12T13:24:13;2.80;;;2.60;;
21202;SDS011;10759;51.982;9.232;2023-04-12T13:26:40;4.05;;;2.45;;
21202;SDS011;10759;51.982;9.232;2023-04-12T13:29:08;2.30;;;2.13;;
21202;SDS011;10759;51.982;9.232;2023-04-12T13:31:37;2.90;;;2.22;;
21202;SDS011;10759;51.982;9.232;2023-04-12T13:34:06;2.10;;;2.00;;
21202;SDS011;10759;51.982;9.232;2023-04-12T13:36:34;3.15;;;2.38;;
21202;SDS011;10759;51.982;9.232;2023-04-12T13:39:01;2.20;;;2.00;;
21202;SDS011;10759;51.982;9.232;2023-04-12T13:41:30;2.88;;;2.65;;
21202;SDS011;10759;51.982;9.232;2023-04-12T13:43:59;2.30;;;2.10;;
21202;SDS011;10759;51.982;9.232;2023-04-12T13:46:27;2.95;;;2.22;;
21202;SDS011;10759;51.982;9.232;2023-04-12T13:48:57;2.80;;;2.47;;
21202;SDS011;10759;51.982;9.232;2023-04-12T13:51:25;2.60;;;2.40;;
21202;SDS011;10759;51.982;9.232;2023-04-12T13:53:53;2.33;;;2.13;;
21202;SDS011;10759;51.982;9.232;2023-04-12T13:56:21;2.33;;;2.20;;
21202;SDS011;10759;51.982;9.232;2023-04-12T13:58:49;1.65;;;1.55;;
21202;SDS011;10759;51.982;9.232;2023-04-12T14:01:17;1.80;;;1.70;;
21202;SDS011;10759;51.982;9.232;2023-04-12T14:03:48;1.60;;;1.50;;
21202;SDS011;10759;51.982;9.232;2023-04-12T14:06:17;1.92;;;1.83;;
21202;SDS011;10759;51.982;9.232;2023-04-12T14:08:45;1.98;;;1.88;;
21202;SDS011;10759;51.982;9.232;2023-04-12T14:11:13;2.03;;;1.83;;
21202;SDS011;10759;51.982;9.232;2023-04-12T14:13:41;1.70;;;1.60;;
21202;SDS011;10759;51.982;9.232;2023-04-12T14:16:09;2.13;;;1.92;;
21202;SDS011;10759;51.982;9.232;2023-04-12T14:18:37;2.53;;;2.33;;
21202;SDS011;10759;51.982;9.232;2023-04-12T14:21:05;2.60;;;2.40;;
21202;SDS011;10759;51.982;9.232;2023-04-12T14:23:35;2.08;;;1.98;;
21202;SDS011;10759;51.982;9.232;2023-04-12T14:26:03;2.33;;;2.13;;
21202;SDS011;10759;51.982;9.232;2023-04-12T14:28:31;2.30;;;2.10;;
21202;SDS011;10759;51.982;9.232;2023-04-12T14:31:00;1.70;;;1.60;;
21202;SDS011;10759;51.982;9.232;2023-04-12T14:33:31;1.77;;;1.67;;
21202;SDS011;10759;51.982;9.232;2023-04-12T14:35:59;2.45;;;1.80;;
21202;SDS011;10759;51.982;9.232;2023-04-12T14:38:30;2.10;;;1.90;;
21202;SDS011;10759;51.982;9.232;2023-04-12T14:40:59;2.03;;;1.92;;
21202;SDS011;10759;51.982;9.232;2023-04-12T14:43:28;1.50;;;1.40;;
21202;SDS011;10759;51.982;9.232;2023-04-12T14:45:56;1.55;;;1.52;;
21202;SDS011;10759;51.982;9.232;2023-04-12T14:48:24;1.73;;;1.63;;
21202;SDS011;10759;51.982;9.232;2023-04-12T14:50:52;2.13;;;2.00;;
21202;SDS011;10759;51.982;9.232;2023-04-12T14:53:20;2.60;;;2.40;;
21202;SDS011;10759;51.982;9.232;2023-04-12T14:55:48;2.30;;;2.10;;
21202;SDS011;10759;51.982;9.232;2023-04-12T14:58:18;2.10;;;2.00;;
21202;SDS011;10759;51.982;9.232;2023-04-12T15:00:46;2.20;;;2.10;;
21202;SDS011;10759;51.982;9.232;2023-04-12T15:03:15;3.00;;;2.80;;
21202;SDS011;10759;51.982;9.232;2023-04-12T15:05:43;2.72;;;2.53;;
21202;SDS011;10759;51.982;9.232;2023-04-12T15:08:12;3.65;;;3.38;;
21202;SDS011;10759;51.982;9.232;2023-04-12T15:10:40;3.90;;;3.70;;
21202;SDS011;10759;51.982;9.232;2023-04-12T15:13:07;4.70;;;4.30;;
21202;SDS011;10759;51.982;9.232;2023-04-12T15:15:38;2.50;;;2.40;;
21202;SDS011;10759;51.982;9.232;2023-04-12T15:18:07;3.45;;;3.25;;
21202;SDS011;10759;51.982;9.232;2023-04-12T15:20:35;7.07;;;6.38;;
21202;SDS011;10759;51.982;9.232;2023-04-12T15:23:03;8.10;;;7.32;;
21202;SDS011;10759;51.982;9.232;2023-04-12T15:25:31;6.28;;;5.72;;